sensor_id;sensor_type;location;lat;lon;timestamp;temperature;humidity
75457;SHT31;64036;48.266;14.192;2022-11-24T00:00:25;4.47;85.57
75457;SHT31;64036;48.266;14.192;2022-11-24T00:02:51;4.48;85.70
75457;SHT31;64036;48.266;14.192;2022-11-24T00:05:16;4.48;85.71
75457;SHT31;64036;48.266;14.192;2022-11-24T00:07:42;4.47;85.69
75457;SHT31;64036;48.266;14.192;2022-11-24T00:10:08;4.47;85.78
75457;SHT31;64036;48.266;14.192;2022-11-24T00:12:34;4.49;85.80
75457;SHT31;64036;48.266;14.192;2022-11-24T00:15:00;4.47;85.77
75457;SHT31;64036;48.266;14.192;2022-11-24T00:17:25;4.45;85.70
75457;SHT31;64036;48.266;14.192;2022-11-24T00:19:53;4.42;85.69
75457;SHT31;64036;48.266;14.192;2022-11-24T00:22:19;4.38;85.78
75457;SHT31;64036;48.266;14.192;2022-11-24T00:24:45;4.38;85.83
75457;SHT31;64036;48.266;14.192;2022-11-24T00:27:10;4.38;85.90
75457;SHT31;64036;48.266;14.192;2022-11-24T00:29:36;4.36;85.90
75457;SHT31;64036;48.266;14.192;2022-11-24T00:32:02;4.34;85.90
75457;SHT31;64036;48.266;14.192;2022-11-24T00:34:30;4.32;85.93
75457;SHT31;64036;48.266;14.192;2022-11-24T00:36:56;4.29;85.95
75457;SHT31;64036;48.266;14.192;2022-11-24T00:39:22;4.27;86.00
75457;SHT31;64036;48.266;14.192;2022-11-24T00:41:47;4.25;86.02
75457;SHT31;64036;48.266;14.192;2022-11-24T00:44:13;4.23;86.05
75457;SHT31;64036;48.266;14.192;2022-11-24T00:46:39;4.21;86.10
75457;SHT31;64036;48.266;14.192;2022-11-24T00:49:04;4.21;86.11
75457;SHT31;64036;48.266;14.192;2022-11-24T00:51:30;4.22;86.17
75457;SHT31;64036;48.266;14.192;2022-11-24T00:53:57;4.21;86.10
75457;SHT31;64036;48.266;14.192;2022-11-24T00:56:25;4.22;86.18
75457;SHT31;64036;48.266;14.192;2022-11-24T00:58:52;4.23;86.20
75457;SHT31;64036;48.266;14.192;2022-11-24T01:01:19;4.24;86.20
75457;SHT31;64036;48.266;14.192;2022-11-24T01:03:47;4.26;86.20
75457;SHT31;64036;48.266;14.192;2022-11-24T01:06:14;4.26;86.11
75457;SHT31;64036;48.266;14.192;2022-11-24T01:08:44;4.27;86.14
75457;SHT31;64036;48.266;14.192;2022-11-24T01:13:49;4.31;86.26
75457;SHT31;64036;48.266;14.192;2022-11-24T01:16:20;4.36;86.20
75457;SHT31;64036;48.266;14.192;2022-11-24T01:18:48;4.38;86.10
75457;SHT31;64036;48.266;14.192;2022-11-24T01:21:15;4.42;86.06
75457;SHT31;64036;48.266;14.192;2022-11-24T01:23:42;4.45;86.01
75457;SHT31;64036;48.266;14.192;2022-11-24T01:26:09;4.47;85.97
75457;SHT31;64036;48.266;14.192;2022-11-24T01:28:37;4.49;85.95
75457;SHT31;64036;48.266;14.192;2022-11-24T01:31:04;4.51;85.90
75457;SHT31;64036;48.266;14.192;2022-11-24T01:33:32;4.51;85.74
75457;SHT31;64036;48.266;14.192;2022-11-24T01:35:59;4.49;85.69
75457;SHT31;64036;48.266;14.192;2022-11-24T01:38:25;4.47;85.67
75457;SHT31;64036;48.266;14.192;2022-11-24T01:43:28;4.48;85.71
75457;SHT31;64036;48.266;14.192;2022-11-24T01:45:53;4.51;85.77
75457;SHT31;64036;48.266;14.192;2022-11-24T01:48:22;4.53;85.70
75457;SHT31;64036;48.266;14.192;2022-11-24T01:51:02;4.55;85.73
75457;SHT31;64036;48.266;14.192;2022-11-24T01:53:38;4.57;85.72
75457;SHT31;64036;48.266;14.192;2022-11-24T01:56:09;4.57;85.79
75457;SHT31;64036;48.266;14.192;2022-11-24T01:58:36;4.59;85.90
75457;SHT31;64036;48.266;14.192;2022-11-24T02:01:04;4.60;85.99
75457;SHT31;64036;48.266;14.192;2022-11-24T02:03:32;4.62;85.90
75457;SHT31;64036;48.266;14.192;2022-11-24T02:08:36;4.61;85.93
75457;SHT31;64036;48.266;14.192;2022-11-24T02:11:33;4.62;86.01
75457;SHT31;64036;48.266;14.192;2022-11-24T02:14:03;4.62;85.98
75457;SHT31;64036;48.266;14.192;2022-11-24T02:16:34;4.63;86.02
75457;SHT31;64036;48.266;14.192;2022-11-24T02:19:06;4.61;85.98
75457;SHT31;64036;48.266;14.192;2022-11-24T02:21:57;4.57;86.12
75457;SHT31;64036;48.266;14.192;2022-11-24T02:24:24;4.55;86.21
75457;SHT31;64036;48.266;14.192;2022-11-24T02:27:05;4.56;86.30
75457;SHT31;64036;48.266;14.192;2022-11-24T02:29:31;4.57;86.33
75457;SHT31;64036;48.266;14.192;2022-11-24T02:31:58;4.58;86.33
75457;SHT31;64036;48.266;14.192;2022-11-24T02:34:27;4.60;86.35
75457;SHT31;64036;48.266;14.192;2022-11-24T02:36:53;4.61;86.32
75457;SHT31;64036;48.266;14.192;2022-11-24T02:39:18;4.60;86.35
75457;SHT31;64036;48.266;14.192;2022-11-24T02:41:51;4.63;86.40
75457;SHT31;64036;48.266;14.192;2022-11-24T02:44:22;4.65;86.38
75457;SHT31;64036;48.266;14.192;2022-11-24T02:47:03;4.66;86.31
75457;SHT31;64036;48.266;14.192;2022-11-24T02:49:36;4.68;86.35
75457;SHT31;64036;48.266;14.192;2022-11-24T02:52:03;4.71;86.36
75457;SHT31;64036;48.266;14.192;2022-11-24T02:54:30;4.73;86.30
75457;SHT31;64036;48.266;14.192;2022-11-24T02:56:56;4.73;86.30
75457;SHT31;64036;48.266;14.192;2022-11-24T02:59:22;4.73;86.30
75457;SHT31;64036;48.266;14.192;2022-11-24T03:01:48;4.73;86.30
75457;SHT31;64036;48.266;14.192;2022-11-24T03:04:14;4.73;86.31
75457;SHT31;64036;48.266;14.192;2022-11-24T03:06:39;4.74;86.33
75457;SHT31;64036;48.266;14.192;2022-11-24T03:09:05;4.72;86.33
75457;SHT31;64036;48.266;14.192;2022-11-24T03:11:31;4.73;86.39
75457;SHT31;64036;48.266;14.192;2022-11-24T03:13:56;4.73;86.40
75457;SHT31;64036;48.266;14.192;2022-11-24T03:16:22;4.76;86.38
75457;SHT31;64036;48.266;14.192;2022-11-24T03:18:51;4.77;86.35
75457;SHT31;64036;48.266;14.192;2022-11-24T03:21:18;4.77;86.35
75457;SHT31;64036;48.266;14.192;2022-11-24T03:23:44;4.77;86.36
75457;SHT31;64036;48.266;14.192;2022-11-24T03:26:11;4.79;86.38
75457;SHT31;64036;48.266;14.192;2022-11-24T03:28:39;4.79;86.40
75457;SHT31;64036;48.266;14.192;2022-11-24T03:31:06;4.80;86.40
75457;SHT31;64036;48.266;14.192;2022-11-24T03:33:33;4.81;86.40
75457;SHT31;64036;48.266;14.192;2022-11-24T03:35:59;4.82;86.40
75457;SHT31;64036;48.266;14.192;2022-11-24T03:38:25;4.83;86.40
75457;SHT31;64036;48.266;14.192;2022-11-24T03:40:51;4.83;86.40
75457;SHT31;64036;48.266;14.192;2022-11-24T03:43:16;4.84;86.41
75457;SHT31;64036;48.266;14.192;2022-11-24T03:45:45;4.86;86.47
75457;SHT31;64036;48.266;14.192;2022-11-24T03:48:12;4.88;86.44
75457;SHT31;64036;48.266;14.192;2022-11-24T03:50:39;4.89;86.41
75457;SHT31;64036;48.266;14.192;2022-11-24T03:53:05;4.91;86.47
75457;SHT31;64036;48.266;14.192;2022-11-24T03:55:31;4.91;86.40
75457;SHT31;64036;48.266;14.192;2022-11-24T03:57:56;4.90;86.43
75457;SHT31;64036;48.266;14.192;2022-11-24T04:00:22;4.89;86.44
75457;SHT31;64036;48.266;14.192;2022-11-24T04:02:48;4.87;86.50
75457;SHT31;64036;48.266;14.192;2022-11-24T04:05:14;4.88;86.52
75457;SHT31;64036;48.266;14.192;2022-11-24T04:07:40;4.89;86.58
75457;SHT31;64036;48.266;14.192;2022-11-24T04:10:05;4.93;86.60
75457;SHT31;64036;48.266;14.192;2022-11-24T04:12:31;4.96;86.53
75457;SHT31;64036;48.266;14.192;2022-11-24T04:15:14;5.01;86.54
75457;SHT31;64036;48.266;14.192;2022-11-24T04:17:42;5.04;86.46
75457;SHT31;64036;48.266;14.192;2022-11-24T04:20:08;5.09;86.46
75457;SHT31;64036;48.266;14.192;2022-11-24T04:22:35;5.09;86.31
75457;SHT31;64036;48.266;14.192;2022-11-24T04:25:01;5.10;86.33
75457;SHT31;64036;48.266;14.192;2022-11-24T04:27:28;5.11;86.21
75457;SHT31;64036;48.266;14.192;2022-11-24T04:29:53;5.10;86.23
75457;SHT31;64036;48.266;14.192;2022-11-24T04:32:19;5.10;86.25
75457;SHT31;64036;48.266;14.192;2022-11-24T04:34:45;5.11;86.24
75457;SHT31;64036;48.266;14.192;2022-11-24T04:37:10;5.12;86.21
75457;SHT31;64036;48.266;14.192;2022-11-24T04:39:36;5.14;86.16
75457;SHT31;64036;48.266;14.192;2022-11-24T04:42:02;5.14;86.10
75457;SHT31;64036;48.266;14.192;2022-11-24T04:44:28;5.14;86.16
75457;SHT31;64036;48.266;14.192;2022-11-24T04:46:53;5.18;86.11
75457;SHT31;64036;48.266;14.192;2022-11-24T04:49:19;5.18;86.10
75457;SHT31;64036;48.266;14.192;2022-11-24T04:51:45;5.22;86.08
75457;SHT31;64036;48.266;14.192;2022-11-24T04:54:11;5.24;86.01
75457;SHT31;64036;48.266;14.192;2022-11-24T04:56:38;5.26;86.00
75457;SHT31;64036;48.266;14.192;2022-11-24T04:59:05;5.26;85.92
75457;SHT31;64036;48.266;14.192;2022-11-24T05:01:30;5.27;85.90
75457;SHT31;64036;48.266;14.192;2022-11-24T05:03:57;5.27;85.91
75457;SHT31;64036;48.266;14.192;2022-11-24T05:06:23;5.26;85.98
75457;SHT31;64036;48.266;14.192;2022-11-24T05:08:49;5.28;85.99
75457;SHT31;64036;48.266;14.192;2022-11-24T05:11:16;5.31;85.89
75457;SHT31;64036;48.266;14.192;2022-11-24T05:13:43;5.32;85.87
75457;SHT31;64036;48.266;14.192;2022-11-24T05:16:09;5.32;85.88
75457;SHT31;64036;48.266;14.192;2022-11-24T05:18:35;5.32;85.84
75457;SHT31;64036;48.266;14.192;2022-11-24T05:21:02;5.31;85.83
75457;SHT31;64036;48.266;14.192;2022-11-24T05:23:28;5.34;85.91
75457;SHT31;64036;48.266;14.192;2022-11-24T05:25:58;5.34;85.81
75457;SHT31;64036;48.266;14.192;2022-11-24T05:28:25;5.34;85.82
75457;SHT31;64036;48.266;14.192;2022-11-24T05:30:51;5.34;85.76
75457;SHT31;64036;48.266;14.192;2022-11-24T05:33:17;5.34;85.79
75457;SHT31;64036;48.266;14.192;2022-11-24T05:35:50;5.37;85.78
75457;SHT31;64036;48.266;14.192;2022-11-24T05:38:16;5.38;85.70
75457;SHT31;64036;48.266;14.192;2022-11-24T05:40:42;5.37;85.70
75457;SHT31;64036;48.266;14.192;2022-11-24T05:43:09;5.36;85.72
75457;SHT31;64036;48.266;14.192;2022-11-24T05:45:40;5.36;85.76
75457;SHT31;64036;48.266;14.192;2022-11-24T05:48:07;5.34;85.70
75457;SHT31;64036;48.266;14.192;2022-11-24T05:50:36;5.34;85.70
75457;SHT31;64036;48.266;14.192;2022-11-24T05:53:06;5.36;85.79
75457;SHT31;64036;48.266;14.192;2022-11-24T05:55:37;5.39;85.75
75457;SHT31;64036;48.266;14.192;2022-11-24T05:58:05;5.39;85.69
75457;SHT31;64036;48.266;14.192;2022-11-24T06:00:33;5.41;85.68
75457;SHT31;64036;48.266;14.192;2022-11-24T06:03:00;5.44;85.55
75457;SHT31;64036;48.266;14.192;2022-11-24T06:05:27;5.45;85.42
75457;SHT31;64036;48.266;14.192;2022-11-24T06:07:53;5.45;85.41
75457;SHT31;64036;48.266;14.192;2022-11-24T06:10:19;5.47;85.40
75457;SHT31;64036;48.266;14.192;2022-11-24T06:12:48;5.48;85.36
75457;SHT31;64036;48.266;14.192;2022-11-24T06:15:14;5.51;85.40
75457;SHT31;64036;48.266;14.192;2022-11-24T06:17:40;5.55;85.36
75457;SHT31;64036;48.266;14.192;2022-11-24T06:20:06;5.55;85.20
75457;SHT31;64036;48.266;14.192;2022-11-24T06:22:34;5.56;85.19
75457;SHT31;64036;48.266;14.192;2022-11-24T06:24:59;5.56;85.22
75457;SHT31;64036;48.266;14.192;2022-11-24T06:27:25;5.59;85.26
75457;SHT31;64036;48.266;14.192;2022-11-24T06:29:51;5.61;85.23
75457;SHT31;64036;48.266;14.192;2022-11-24T06:32:16;5.63;85.27
75457;SHT31;64036;48.266;14.192;2022-11-24T06:34:42;5.63;85.29
75457;SHT31;64036;48.266;14.192;2022-11-24T06:37:08;5.68;85.35
75457;SHT31;64036;48.266;14.192;2022-11-24T06:39:34;5.69;85.30
75457;SHT31;64036;48.266;14.192;2022-11-24T06:42:00;5.66;85.30
75457;SHT31;64036;48.266;14.192;2022-11-24T06:44:26;5.60;85.54
75457;SHT31;64036;48.266;14.192;2022-11-24T06:46:51;5.64;85.76
75457;SHT31;64036;48.266;14.192;2022-11-24T06:49:17;5.72;85.67
75457;SHT31;64036;48.266;14.192;2022-11-24T06:51:43;5.76;85.62
75457;SHT31;64036;48.266;14.192;2022-11-24T06:54:09;5.79;85.56
75457;SHT31;64036;48.266;14.192;2022-11-24T06:56:41;5.83;85.59
75457;SHT31;64036;48.266;14.192;2022-11-24T06:59:13;5.88;85.51
75457;SHT31;64036;48.266;14.192;2022-11-24T07:01:42;5.89;85.50
75457;SHT31;64036;48.266;14.192;2022-11-24T07:04:08;5.93;85.46
75457;SHT31;64036;48.266;14.192;2022-11-24T07:06:34;5.96;85.40
75457;SHT31;64036;48.266;14.192;2022-11-24T07:08:59;6.00;85.33
75457;SHT31;64036;48.266;14.192;2022-11-24T07:11:25;6.05;85.31
75457;SHT31;64036;48.266;14.192;2022-11-24T07:13:50;6.07;85.24
75457;SHT31;64036;48.266;14.192;2022-11-24T07:16:17;6.12;85.29
75457;SHT31;64036;48.266;14.192;2022-11-24T07:18:46;6.16;85.20
75457;SHT31;64036;48.266;14.192;2022-11-24T07:21:13;6.30;85.24
75457;SHT31;64036;48.266;14.192;2022-11-24T07:23:40;6.58;85.12
75457;SHT31;64036;48.266;14.192;2022-11-24T07:26:06;6.68;84.81
75457;SHT31;64036;48.266;14.192;2022-11-24T07:28:33;6.77;84.76
75457;SHT31;64036;48.266;14.192;2022-11-24T07:31:07;6.82;84.63
75457;SHT31;64036;48.266;14.192;2022-11-24T07:33:35;6.83;84.60
75457;SHT31;64036;48.266;14.192;2022-11-24T07:36:01;6.79;84.46
75457;SHT31;64036;48.266;14.192;2022-11-24T07:38:29;6.68;84.57
75457;SHT31;64036;48.266;14.192;2022-11-24T07:41:03;6.61;84.76
75457;SHT31;64036;48.266;14.192;2022-11-24T07:43:31;6.57;84.93
75457;SHT31;64036;48.266;14.192;2022-11-24T07:45:58;6.53;85.03
75457;SHT31;64036;48.266;14.192;2022-11-24T07:48:24;6.53;85.16
75457;SHT31;64036;48.266;14.192;2022-11-24T07:50:51;6.54;85.21
75457;SHT31;64036;48.266;14.192;2022-11-24T07:53:16;6.57;85.22
75457;SHT31;64036;48.266;14.192;2022-11-24T07:55:42;6.59;85.21
75457;SHT31;64036;48.266;14.192;2022-11-24T07:58:17;6.64;85.31
75457;SHT31;64036;48.266;14.192;2022-11-24T08:00:43;6.67;85.38
75457;SHT31;64036;48.266;14.192;2022-11-24T08:03:08;6.69;85.36
75457;SHT31;64036;48.266;14.192;2022-11-24T08:05:34;6.70;85.48
75457;SHT31;64036;48.266;14.192;2022-11-24T08:08:00;6.75;85.52
75457;SHT31;64036;48.266;14.192;2022-11-24T08:10:25;6.80;85.57
75457;SHT31;64036;48.266;14.192;2022-11-24T08:12:51;6.84;85.60
75457;SHT31;64036;48.266;14.192;2022-11-24T08:15:16;6.90;85.63
75457;SHT31;64036;48.266;14.192;2022-11-24T08:17:42;6.93;85.69
75457;SHT31;64036;48.266;14.192;2022-11-24T08:20:08;6.98;85.70
75457;SHT31;64036;48.266;14.192;2022-11-24T08:22:34;7.04;85.66
75457;SHT31;64036;48.266;14.192;2022-11-24T08:25:00;7.09;85.60
75457;SHT31;64036;48.266;14.192;2022-11-24T08:27:25;7.13;85.68
75457;SHT31;64036;48.266;14.192;2022-11-24T08:29:51;7.18;85.67
75457;SHT31;64036;48.266;14.192;2022-11-24T08:32:16;7.24;85.64
75457;SHT31;64036;48.266;14.192;2022-11-24T08:34:42;7.27;85.61
75457;SHT31;64036;48.266;14.192;2022-11-24T08:37:07;7.32;85.60
75457;SHT31;64036;48.266;14.192;2022-11-24T08:39:33;7.43;85.62
75457;SHT31;64036;48.266;14.192;2022-11-24T08:41:58;7.57;85.60
75457;SHT31;64036;48.266;14.192;2022-11-24T08:44:24;7.62;85.46
75457;SHT31;64036;48.266;14.192;2022-11-24T08:46:52;7.68;85.40
75457;SHT31;64036;48.266;14.192;2022-11-24T08:49:19;7.77;85.40
75457;SHT31;64036;48.266;14.192;2022-11-24T08:51:45;7.86;85.39
75457;SHT31;64036;48.266;14.192;2022-11-24T08:54:12;7.97;85.26
75457;SHT31;64036;48.266;14.192;2022-11-24T08:56:39;8.16;85.18
75457;SHT31;64036;48.266;14.192;2022-11-24T08:59:06;8.28;84.90
75457;SHT31;64036;48.266;14.192;2022-11-24T09:01:32;8.37;84.71
75457;SHT31;64036;48.266;14.192;2022-11-24T09:03:57;8.43;84.48
75457;SHT31;64036;48.266;14.192;2022-11-24T09:06:24;8.53;84.18
75457;SHT31;64036;48.266;14.192;2022-11-24T09:08:54;8.65;83.81
75457;SHT31;64036;48.266;14.192;2022-11-24T09:11:21;8.65;83.84
75457;SHT31;64036;48.266;14.192;2022-11-24T09:13:48;8.72;83.76
75457;SHT31;64036;48.266;14.192;2022-11-24T09:16:16;8.80;83.67
75457;SHT31;64036;48.266;14.192;2022-11-24T09:18:44;8.90;83.69
75457;SHT31;64036;48.266;14.192;2022-11-24T09:23:40;9.02;83.41
75457;SHT31;64036;48.266;14.192;2022-11-24T09:26:07;9.13;83.31
75457;SHT31;64036;48.266;14.192;2022-11-24T09:28:35;9.25;82.97
75457;SHT31;64036;48.266;14.192;2022-11-24T09:31:05;9.34;82.41
75457;SHT31;64036;48.266;14.192;2022-11-24T09:33:34;9.45;82.11
75457;SHT31;64036;48.266;14.192;2022-11-24T09:36:03;9.58;82.01
75457;SHT31;64036;48.266;14.192;2022-11-24T09:38:30;9.64;81.71
75457;SHT31;64036;48.266;14.192;2022-11-24T09:41:03;9.70;81.66
75457;SHT31;64036;48.266;14.192;2022-11-24T09:49:05;9.96;80.98
75457;SHT31;64036;48.266;14.192;2022-11-24T09:51:42;9.96;80.41
75457;SHT31;64036;48.266;14.192;2022-11-24T09:54:12;9.94;80.59
75457;SHT31;64036;48.266;14.192;2022-11-24T09:56:43;9.97;80.73
75457;SHT31;64036;48.266;14.192;2022-11-24T10:01:41;9.98;80.36
75457;SHT31;64036;48.266;14.192;2022-11-24T10:04:31;9.94;80.23
75457;SHT31;64036;48.266;14.192;2022-11-24T10:15:22;10.10;80.45
75457;SHT31;64036;48.266;14.192;2022-11-24T10:27:17;10.09;80.12
75457;SHT31;64036;48.266;14.192;2022-11-24T10:29:50;10.08;80.09
75457;SHT31;64036;48.266;14.192;2022-11-24T10:32:18;10.06;80.06
75457;SHT31;64036;48.266;14.192;2022-11-24T10:34:50;10.05;80.10
75457;SHT31;64036;48.266;14.192;2022-11-24T10:37:27;10.08;80.08
75457;SHT31;64036;48.266;14.192;2022-11-24T10:40:03;10.12;79.76
75457;SHT31;64036;48.266;14.192;2022-11-24T10:42:38;10.12;79.71
75457;SHT31;64036;48.266;14.192;2022-11-24T10:45:11;10.08;79.65
75457;SHT31;64036;48.266;14.192;2022-11-24T10:47:40;10.06;79.83
75457;SHT31;64036;48.266;14.192;2022-11-24T10:50:18;10.04;79.83
75457;SHT31;64036;48.266;14.192;2022-11-24T10:58:25;9.99;80.00
75457;SHT31;64036;48.266;14.192;2022-11-24T11:00:56;9.98;79.94
75457;SHT31;64036;48.266;14.192;2022-11-24T11:03:25;9.95;80.04
75457;SHT31;64036;48.266;14.192;2022-11-24T11:06:09;9.99;80.11
75457;SHT31;64036;48.266;14.192;2022-11-24T11:08:39;10.04;80.05
75457;SHT31;64036;48.266;14.192;2022-11-24T11:16:51;10.24;79.85
75457;SHT31;64036;48.266;14.192;2022-11-24T11:24:37;10.40;79.86
75457;SHT31;64036;48.266;14.192;2022-11-24T11:27:15;10.45;79.76
75457;SHT31;64036;48.266;14.192;2022-11-24T11:29:46;10.51;79.57
75457;SHT31;64036;48.266;14.192;2022-11-24T11:32:20;10.61;79.50
75457;SHT31;64036;48.266;14.192;2022-11-24T11:34:52;10.72;79.22
75457;SHT31;64036;48.266;14.192;2022-11-24T11:37:21;10.84;79.00
75457;SHT31;64036;48.266;14.192;2022-11-24T11:39:52;10.91;78.62
75457;SHT31;64036;48.266;14.192;2022-11-24T11:42:24;10.98;78.81
75457;SHT31;64036;48.266;14.192;2022-11-24T11:45:15;11.11;78.46
75457;SHT31;64036;48.266;14.192;2022-11-24T11:48:25;11.18;78.39
75457;SHT31;64036;48.266;14.192;2022-11-24T11:57:09;11.19;77.73
75457;SHT31;64036;48.266;14.192;2022-11-24T12:11:29;11.13;77.67
75457;SHT31;64036;48.266;14.192;2022-11-24T12:20:21;10.97;77.83
75457;SHT31;64036;48.266;14.192;2022-11-24T12:23:07;10.89;77.61
75457;SHT31;64036;48.266;14.192;2022-11-24T12:25:41;10.79;77.19
75457;SHT31;64036;48.266;14.192;2022-11-24T12:33:37;10.53;77.16
75457;SHT31;64036;48.266;14.192;2022-11-24T12:39:34;10.47;76.35
75457;SHT31;64036;48.266;14.192;2022-11-24T12:45:31;10.34;77.17
75457;SHT31;64036;48.266;14.192;2022-11-24T12:50:52;10.20;77.94
75457;SHT31;64036;48.266;14.192;2022-11-24T12:53:23;10.27;78.27
75457;SHT31;64036;48.266;14.192;2022-11-24T12:55:54;10.44;78.54
75457;SHT31;64036;48.266;14.192;2022-11-24T12:58:39;10.67;78.57
75457;SHT31;64036;48.266;14.192;2022-11-24T13:01:15;10.91;78.52
75457;SHT31;64036;48.266;14.192;2022-11-24T13:07:03;10.95;78.22
75457;SHT31;64036;48.266;14.192;2022-11-24T13:15:35;10.99;78.53
75457;SHT31;64036;48.266;14.192;2022-11-24T13:29:27;10.43;78.81
75457;SHT31;64036;48.266;14.192;2022-11-24T13:32:44;10.31;79.22
75457;SHT31;64036;48.266;14.192;2022-11-24T13:37:17;10.01;80.21
75457;SHT31;64036;48.266;14.192;2022-11-24T13:42:27;9.81;80.54
75457;SHT31;64036;48.266;14.192;2022-11-24T13:50:06;9.82;80.81
75457;SHT31;64036;48.266;14.192;2022-11-24T13:57:47;9.62;80.22
75457;SHT31;64036;48.266;14.192;2022-11-24T14:00:31;9.44;79.84
75457;SHT31;64036;48.266;14.192;2022-11-24T14:03:14;9.34;80.18
75457;SHT31;64036;48.266;14.192;2022-11-24T14:05:48;9.34;80.12
75457;SHT31;64036;48.266;14.192;2022-11-24T14:08:20;9.21;80.24
75457;SHT31;64036;48.266;14.192;2022-11-24T14:10:55;9.18;80.47
75457;SHT31;64036;48.266;14.192;2022-11-24T14:18:29;9.21;80.28
75457;SHT31;64036;48.266;14.192;2022-11-24T14:20:56;9.19;80.29
75457;SHT31;64036;48.266;14.192;2022-11-24T14:23:41;9.15;80.25
75457;SHT31;64036;48.266;14.192;2022-11-24T14:26:20;9.08;80.42
75457;SHT31;64036;48.266;14.192;2022-11-24T14:28:50;9.02;80.76
75457;SHT31;64036;48.266;14.192;2022-11-24T14:33:49;8.90;81.16
75457;SHT31;64036;48.266;14.192;2022-11-24T14:36:27;8.86;81.33
75457;SHT31;64036;48.266;14.192;2022-11-24T14:38:52;8.81;81.62
75457;SHT31;64036;48.266;14.192;2022-11-24T14:41:22;8.80;81.82
75457;SHT31;64036;48.266;14.192;2022-11-24T14:46:33;8.72;82.04
75457;SHT31;64036;48.266;14.192;2022-11-24T14:48:59;8.73;82.14
75457;SHT31;64036;48.266;14.192;2022-11-24T14:51:33;8.73;82.24
75457;SHT31;64036;48.266;14.192;2022-11-24T14:54:12;8.67;82.33
75457;SHT31;64036;48.266;14.192;2022-11-24T14:56:54;8.56;82.54
75457;SHT31;64036;48.266;14.192;2022-11-24T14:59:23;8.51;82.68
75457;SHT31;64036;48.266;14.192;2022-11-24T15:01:51;8.46;82.63
75457;SHT31;64036;48.266;14.192;2022-11-24T15:09:51;8.42;82.45
75457;SHT31;64036;48.266;14.192;2022-11-24T15:14:57;8.34;82.51
75457;SHT31;64036;48.266;14.192;2022-11-24T15:18:17;8.30;82.56
75457;SHT31;64036;48.266;14.192;2022-11-24T15:28:25;8.12;83.37
75457;SHT31;64036;48.266;14.192;2022-11-24T15:30:53;8.10;83.50
75457;SHT31;64036;48.266;14.192;2022-11-24T15:33:35;8.10;83.62
75457;SHT31;64036;48.266;14.192;2022-11-24T15:36:00;8.09;83.74
75457;SHT31;64036;48.266;14.192;2022-11-24T15:38:26;8.06;83.84
75457;SHT31;64036;48.266;14.192;2022-11-24T15:40:53;8.04;83.92
75457;SHT31;64036;48.266;14.192;2022-11-24T15:45:53;8.03;83.97
75457;SHT31;64036;48.266;14.192;2022-11-24T15:48:19;8.01;84.04
75457;SHT31;64036;48.266;14.192;2022-11-24T15:50:45;7.99;84.01
75457;SHT31;64036;48.266;14.192;2022-11-24T15:53:28;7.99;84.03
75457;SHT31;64036;48.266;14.192;2022-11-24T15:56:02;7.97;84.10
75457;SHT31;64036;48.266;14.192;2022-11-24T15:58:38;7.95;84.10
75457;SHT31;64036;48.266;14.192;2022-11-24T16:01:03;7.95;84.09
75457;SHT31;64036;48.266;14.192;2022-11-24T16:03:29;7.94;84.09
75457;SHT31;64036;48.266;14.192;2022-11-24T16:05:55;7.92;84.10
75457;SHT31;64036;48.266;14.192;2022-11-24T16:08:21;7.89;84.01
75457;SHT31;64036;48.266;14.192;2022-11-24T16:10:47;7.88;84.00
75457;SHT31;64036;48.266;14.192;2022-11-24T16:13:13;7.86;83.94
75457;SHT31;64036;48.266;14.192;2022-11-24T16:15:38;7.84;83.87
75457;SHT31;64036;48.266;14.192;2022-11-24T16:18:04;7.83;83.82
75457;SHT31;64036;48.266;14.192;2022-11-24T16:20:31;7.81;83.74
75457;SHT31;64036;48.266;14.192;2022-11-24T16:23:00;7.79;83.62
75457;SHT31;64036;48.266;14.192;2022-11-24T16:25:28;7.77;83.50
75457;SHT31;64036;48.266;14.192;2022-11-24T16:27:54;7.75;83.39
75457;SHT31;64036;48.266;14.192;2022-11-24T16:30:20;7.72;83.30
75457;SHT31;64036;48.266;14.192;2022-11-24T16:32:45;7.70;83.18
75457;SHT31;64036;48.266;14.192;2022-11-24T16:35:11;7.66;83.11
75457;SHT31;64036;48.266;14.192;2022-11-24T16:37:37;7.64;83.14
75457;SHT31;64036;48.266;14.192;2022-11-24T16:40:02;7.61;83.23
75457;SHT31;64036;48.266;14.192;2022-11-24T16:42:30;7.56;83.29
75457;SHT31;64036;48.266;14.192;2022-11-24T16:44:55;7.54;83.33
75457;SHT31;64036;48.266;14.192;2022-11-24T16:47:21;7.51;83.43
75457;SHT31;64036;48.266;14.192;2022-11-24T16:49:47;7.47;83.50
75457;SHT31;64036;48.266;14.192;2022-11-24T16:52:16;7.42;83.59
75457;SHT31;64036;48.266;14.192;2022-11-24T16:54:43;7.38;83.68
75457;SHT31;64036;48.266;14.192;2022-11-24T16:57:11;7.33;83.73
75457;SHT31;64036;48.266;14.192;2022-11-24T16:59:38;7.31;83.80
75457;SHT31;64036;48.266;14.192;2022-11-24T17:02:03;7.27;83.83
75457;SHT31;64036;48.266;14.192;2022-11-24T17:04:29;7.25;83.89
75457;SHT31;64036;48.266;14.192;2022-11-24T17:06:55;7.24;83.89
75457;SHT31;64036;48.266;14.192;2022-11-24T17:09:22;7.20;83.90
75457;SHT31;64036;48.266;14.192;2022-11-24T17:11:48;7.17;83.90
75457;SHT31;64036;48.266;14.192;2022-11-24T17:14:14;7.18;84.02
75457;SHT31;64036;48.266;14.192;2022-11-24T17:16:40;7.22;83.88
75457;SHT31;64036;48.266;14.192;2022-11-24T17:19:05;7.22;83.77
75457;SHT31;64036;48.266;14.192;2022-11-24T17:21:31;7.20;83.71
75457;SHT31;64036;48.266;14.192;2022-11-24T17:24:01;7.20;83.69
75457;SHT31;64036;48.266;14.192;2022-11-24T17:26:31;7.20;83.69
75457;SHT31;64036;48.266;14.192;2022-11-24T17:28:57;7.20;83.65
75457;SHT31;64036;48.266;14.192;2022-11-24T17:31:24;7.21;83.69
75457;SHT31;64036;48.266;14.192;2022-11-24T17:34:02;7.14;83.73
75457;SHT31;64036;48.266;14.192;2022-11-24T17:36:30;7.11;83.91
75457;SHT31;64036;48.266;14.192;2022-11-24T17:38:58;7.11;83.94
75457;SHT31;64036;48.266;14.192;2022-11-24T17:41:25;7.10;83.90
75457;SHT31;64036;48.266;14.192;2022-11-24T17:43:52;7.08;83.78
75457;SHT31;64036;48.266;14.192;2022-11-24T17:46:20;7.10;83.66
75457;SHT31;64036;48.266;14.192;2022-11-24T17:48:46;7.11;83.54
75457;SHT31;64036;48.266;14.192;2022-11-24T17:51:12;7.09;83.41
75457;SHT31;64036;48.266;14.192;2022-11-24T17:53:41;7.09;83.30
75457;SHT31;64036;48.266;14.192;2022-11-24T17:56:14;7.15;83.07
75457;SHT31;64036;48.266;14.192;2022-11-24T17:58:41;7.15;82.90
75457;SHT31;64036;48.266;14.192;2022-11-24T18:01:07;7.12;82.81
75457;SHT31;64036;48.266;14.192;2022-11-24T18:03:33;7.07;82.84
75457;SHT31;64036;48.266;14.192;2022-11-24T18:06:03;7.02;82.90
75457;SHT31;64036;48.266;14.192;2022-11-24T18:08:36;6.97;82.95
75457;SHT31;64036;48.266;14.192;2022-11-24T18:11:05;6.85;83.12
75457;SHT31;64036;48.266;14.192;2022-11-24T18:13:37;6.84;83.34
75457;SHT31;64036;48.266;14.192;2022-11-24T18:16:04;6.82;83.23